Kingsley Field, Oregon
Current Conditions -  °F | °C
As of 5:53 PM on Friday 24 Oct 2014 (Local Time) from KLMT Reporting Station
Clear Clear  
Wind Chill: 57°   Ceiling: Unl
Heat Index: 57°   Visibility: 10mi
Dew Point: 39°   Wind: 29mph
Humidity: 51%   Direction: 180°S
Pressure: 29.87"   Gusts: 37mph
Location:  42.2527°N, 121.834°W
Report Text: KLMT 250053Z 18025G32KT 10SM CLR 14/04 A2987 RMK AO2 PK WND 18036/0003 SLP096 T01390039
Loading
Personal Weather Stations






























Interactive Weather Map
Tropical Storm Tracking
New forecast layout! Learn more

10-Day Weather Forecast

Advertisements
Track Severe Weather on mobile